Observations for Trim Patrick St
| Time | AQI | Temp °C | Hum % | Pres Pa | CO μg/m³ | H₂S μg/m³ | NO μg/m³ | NO₂ μg/m³ | O₃ μg/m³ | SO₂ μg/m³ | PM1 μg/m³ | PM2.5 μg/m³ | PM10 μg/m³ |
|---|---|---|---|---|---|---|---|---|---|---|---|---|---|
| Friday 7 August 2026 | |||||||||||||
| 15:51 | 2 | 30.8 | 32 | 69,252 | 0 | 0 | 0.91 | 15.06 | 101.94 | 13.35 | 2 | 8.36 | 9.2 |
| 15:50 | 2 | 30.8 | 31 | 69,246 | 0 | 0 | 0.97 | 14.82 | 99.85 | 14.1 | 2.86 | 10.03 | 11.03 |
| 15:49 | 2 | 30.8 | 31 | 69,242 | 0 | 0 | 0.98 | 10.57 | 60.88 | 13.23 | 3.71 | 9.23 | 10.15 |
| 15:48 | 2 | 30.7 | 32 | 69,240 | 0 | 0 | 0.98 | 13.5 | 101.45 | 13.98 | 3.71 | 10.75 | 11.83 |
| 15:47 | 2 | 30.6 | 32 | 69,232 | 0 | 0 | 1.02 | 12.09 | 69.37 | 12.5 | 2.86 | 9.18 | 10.1 |
| 15:45 | 2 | 30.4 | 32 | 69,210 | 0 | 0 | 1.08 | 15.2 | 88.36 | 12.15 | 2.86 | 9.18 | 10.1 |
| 15:44 | 2 | 30.4 | 32 | 69,195 | 0 | 0 | 1.04 | 11.64 | 77.24 | 13.56 | 3.71 | 9.17 | 10.09 |
| 15:43 | 2 | 30.3 | 32 | 69,206 | 0 | 0 | 1.02 | 12.76 | 72.72 | 12.38 | 2.86 | 9.17 | 10.09 |
| 15:42 | 2 | 30.3 | 32 | 69,218 | 0 | 0 | 0.97 | 12.65 | 104.77 | 13.18 | 3.71 | 9.92 | 10.91 |
| 15:41 | 2 | 30.2 | 31 | 69,204 | 0 | 0 | 1.12 | 12.15 | 71.17 | 12.52 | 2.86 | 10.04 | 11.05 |
| 15:40 | 2 | 30.1 | 31 | 69,218 | 0 | 0 | 1.08 | 11.71 | 74.55 | 12.43 | 5.43 | 11.61 | 12.78 |
| 15:39 | 2 | 30 | 32 | 69,204 | 0 | 0 | 1.07 | 11.8 | 69.58 | 12.45 | 2.86 | 9.14 | 10.06 |
| 15:38 | 2 | 29.9 | 32 | 69,187 | 0 | 0 | 1.09 | 16.51 | 95.84 | 12.23 | 2 | 9.14 | 10.06 |
| 15:37 | 2 | 29.7 | 32 | 69,163 | 0 | 0 | 1.15 | 13.03 | 99.75 | 12.92 | 2.86 | 9.14 | 10.05 |
| 15:36 | 2 | 29.6 | 32 | 69,163 | 0 | 0 | 1.14 | 11.52 | 72.09 | 11.38 | 2.86 | 9.12 | 10.03 |
| 15:35 | 2 | 29.6 | 33 | 69,165 | 0 | 0 | 1.12 | 11.86 | 75.5 | 12.17 | 2.86 | 9.09 | 10 |
| 15:34 | 2 | 29.5 | 34 | 69,163 | 0 | 0.43 | 1.05 | 11.8 | 82.84 | 13.9 | 3.71 | 9.81 | 10.79 |
| 15:32 | 2 | 29.3 | 34 | 69,167 | 0 | 0 | 1.09 | 11.23 | 71.43 | 12.3 | 3.71 | 10.6 | 11.66 |
| 15:31 | 2 | 29.3 | 33 | 69,175 | 0 | 0 | 1.14 | 16.12 | 89.88 | 12.01 | 2.86 | 9.06 | 9.96 |
| 15:30 | 2 | 29.3 | 34 | 69,181 | 0 | 0 | 1.16 | 13.32 | 94.9 | 13.15 | 2 | 8.23 | 9.06 |